createdAt,value
2023-05-04T00:01:01.650Z,5.60
2023-05-04T00:03:28.469Z,5.83
2023-05-04T00:05:55.163Z,6.10
2023-05-04T00:08:21.746Z,6.20
2023-05-04T00:10:48.405Z,5.80
2023-05-04T00:13:15.044Z,5.60
2023-05-04T00:15:41.855Z,6.30
2023-05-04T00:18:08.599Z,5.45
2023-05-04T00:20:35.190Z,5.80
2023-05-04T00:23:01.757Z,5.67
2023-05-04T00:25:28.387Z,5.90
2023-05-04T00:27:54.992Z,5.17
2023-05-04T00:30:21.542Z,5.97
2023-05-04T00:32:48.237Z,6.10
2023-05-04T00:35:14.873Z,6.10
2023-05-04T00:37:43.630Z,6.27
2023-05-04T00:40:10.503Z,6.40
2023-05-04T00:42:37.101Z,6.37
2023-05-04T00:45:03.796Z,6.07
2023-05-04T00:47:30.408Z,5.73
2023-05-04T00:49:57.191Z,5.80
2023-05-04T00:52:24.391Z,6.80
2023-05-04T00:54:52.845Z,6.80
2023-05-04T00:57:19.559Z,6.37
2023-05-04T00:59:47.607Z,6.07
2023-05-04T01:02:14.294Z,6.83
2023-05-04T01:04:40.988Z,6.43
2023-05-04T01:07:30.666Z,6.23
2023-05-04T01:10:08.169Z,6.67
2023-05-04T01:12:51.178Z,6.70
2023-05-04T01:15:18.669Z,6.87
2023-05-04T01:17:45.327Z,6.90
2023-05-04T01:20:12.318Z,7.57
2023-05-04T01:22:38.967Z,6.83
2023-05-04T01:25:06.632Z,6.93
2023-05-04T01:27:56.316Z,7.63
2023-05-04T01:30:40.667Z,7.27
2023-05-04T01:33:07.864Z,7.63
2023-05-04T01:35:35.402Z,7.30
2023-05-04T01:38:02.956Z,8.10
2023-05-04T01:40:29.667Z,7.43
2023-05-04T01:42:56.594Z,7.00
2023-05-04T01:45:23.301Z,7.27
2023-05-04T01:47:49.968Z,7.10
2023-05-04T01:50:16.711Z,7.37
2023-05-04T01:52:43.325Z,7.50
2023-05-04T01:55:10.001Z,7.10
2023-05-04T01:57:36.630Z,7.20
2023-05-04T02:00:04.202Z,6.80
2023-05-04T02:02:31.612Z,6.97
2023-05-04T02:04:58.245Z,7.10
2023-05-04T02:07:24.808Z,8.02
2023-05-04T02:09:51.427Z,7.67
2023-05-04T02:12:18.042Z,7.83
2023-05-04T02:14:44.614Z,6.70
2023-05-04T02:17:11.892Z,8.38
2023-05-04T02:19:38.538Z,6.80
2023-05-04T02:22:05.127Z,7.73
2023-05-04T02:24:31.714Z,7.37
2023-05-04T02:26:58.546Z,7.57
2023-05-04T02:29:25.220Z,7.77
2023-05-04T02:31:51.898Z,7.93
2023-05-04T02:34:18.483Z,8.57
2023-05-04T02:36:45.022Z,7.70
2023-05-04T02:39:11.609Z,7.67
2023-05-04T02:41:38.225Z,7.63
2023-05-04T02:44:05.152Z,8.47
2023-05-04T02:46:32.403Z,7.47
2023-05-04T02:48:58.971Z,8.37
2023-05-04T02:51:25.530Z,7.93
2023-05-04T02:53:52.077Z,7.93
2023-05-04T02:56:18.657Z,8.47
2023-05-04T02:58:45.748Z,8.20
2023-05-04T03:01:12.379Z,8.10
2023-05-04T03:03:38.976Z,8.33
2023-05-04T03:06:05.687Z,8.10
2023-05-04T03:08:32.247Z,8.47
2023-05-04T03:10:58.847Z,8.63
2023-05-04T03:13:25.612Z,7.63
2023-05-04T03:15:52.203Z,8.40
2023-05-04T03:18:18.826Z,9.13
2023-05-04T03:20:45.746Z,8.57
2023-05-04T03:23:12.353Z,9.30
2023-05-04T03:25:38.940Z,9.43
2023-05-04T03:28:05.752Z,8.00
2023-05-04T03:30:32.314Z,8.77
2023-05-04T03:32:58.986Z,8.90
2023-05-04T03:35:25.659Z,8.97
2023-05-04T03:37:52.280Z,8.20
2023-05-04T03:40:22.811Z,8.70
2023-05-04T03:42:49.764Z,8.20
2023-05-04T03:45:16.398Z,8.73
2023-05-04T03:47:43.039Z,8.27
2023-05-04T03:50:11.048Z,9.53
2023-05-04T03:52:37.686Z,9.20
2023-05-04T03:55:04.614Z,9.37
2023-05-04T03:57:31.174Z,9.67
2023-05-04T03:59:58.027Z,10.07
2023-05-04T04:02:24.891Z,10.80
2023-05-04T04:04:52.069Z,12.57
2023-05-04T04:07:18.675Z,12.53
2023-05-04T04:09:46.360Z,11.47
2023-05-04T04:12:13.104Z,11.47
2023-05-04T04:14:39.684Z,9.60
2023-05-04T04:17:06.263Z,9.23
2023-05-04T04:19:32.845Z,9.97
2023-05-04T04:21:59.945Z,9.07
2023-05-04T04:24:26.530Z,9.27
2023-05-04T04:26:53.311Z,9.83
2023-05-04T04:29:21.067Z,8.90
2023-05-04T04:31:47.657Z,9.83
2023-05-04T04:34:14.260Z,9.90
2023-05-04T04:36:40.852Z,10.30
2023-05-04T04:39:08.050Z,9.07
2023-05-04T04:41:34.648Z,9.93
2023-05-04T04:44:01.247Z,10.70
2023-05-04T04:46:28.050Z,10.00
2023-05-04T04:48:55.553Z,10.20
2023-05-04T04:51:22.126Z,9.83
2023-05-04T04:53:48.683Z,10.20
2023-05-04T04:56:15.418Z,10.20
2023-05-04T04:58:42.481Z,10.20
2023-05-04T05:01:09.148Z,10.73
2023-05-04T05:03:36.132Z,9.83
2023-05-04T05:06:02.931Z,10.57
2023-05-04T05:08:29.732Z,10.73
2023-05-04T05:10:56.406Z,10.77
2023-05-04T05:13:23.075Z,10.73
2023-05-04T05:15:49.656Z,11.07
2023-05-04T05:18:16.281Z,10.83
2023-05-04T05:20:42.844Z,10.10
2023-05-04T05:23:09.397Z,11.10
2023-05-04T05:25:37.065Z,11.33
2023-05-04T05:28:04.130Z,10.87
2023-05-04T05:30:30.785Z,11.80
2023-05-04T05:32:57.630Z,10.93
2023-05-04T05:35:24.254Z,10.40
2023-05-04T05:37:50.992Z,10.23
2023-05-04T05:40:17.810Z,11.60
2023-05-04T05:42:45.082Z,11.17
2023-05-04T05:45:11.706Z,10.73
2023-05-04T05:47:38.325Z,11.10
2023-05-04T05:50:06.104Z,11.40
2023-05-04T05:52:33.975Z,12.00
2023-05-04T05:55:02.398Z,12.10
2023-05-04T05:57:29.410Z,11.20
2023-05-04T05:59:56.658Z,10.83
2023-05-04T06:02:23.481Z,11.37
2023-05-04T06:04:50.341Z,11.40
2023-05-04T06:07:17.736Z,11.47
2023-05-04T06:09:44.395Z,12.07
2023-05-04T06:12:13.519Z,11.93
2023-05-04T06:14:40.395Z,11.47
2023-05-04T06:17:06.979Z,12.67
2023-05-04T06:19:39.856Z,12.03
2023-05-04T06:22:06.488Z,11.97
2023-05-04T06:24:33.408Z,12.30
2023-05-04T06:26:59.993Z,12.40
2023-05-04T06:29:28.256Z,12.60
2023-05-04T06:31:58.630Z,13.43
2023-05-04T06:34:26.582Z,14.02
2023-05-04T06:36:54.808Z,12.10
2023-05-04T06:39:24.585Z,12.30
2023-05-04T06:41:57.099Z,11.73
2023-05-04T06:44:34.046Z,11.37
2023-05-04T06:47:00.607Z,11.00
2023-05-04T06:49:30.659Z,11.00
2023-05-04T06:51:57.249Z,11.43
2023-05-04T06:54:23.914Z,11.87
2023-05-04T06:56:51.404Z,11.07
2023-05-04T06:59:20.243Z,11.53
2023-05-04T07:01:47.701Z,11.77
2023-05-04T07:04:16.377Z,10.97
2023-05-04T07:06:43.587Z,11.73
2023-05-04T07:09:10.216Z,10.90
2023-05-04T07:11:36.791Z,10.70
2023-05-04T07:14:03.430Z,11.17
2023-05-04T07:16:30.044Z,11.83
2023-05-04T07:18:57.406Z,10.43
2023-05-04T07:21:28.322Z,10.20
2023-05-04T07:23:55.941Z,10.83
2023-05-04T07:26:23.199Z,10.73
2023-05-04T07:28:50.114Z,10.90
2023-05-04T07:31:16.754Z,10.50
2023-05-04T07:33:43.558Z,11.13
2023-05-04T07:36:10.422Z,11.60
2023-05-04T07:38:37.082Z,10.53
2023-05-04T07:41:03.905Z,10.03
2023-05-04T07:43:30.636Z,11.13
2023-05-04T07:45:57.270Z,11.47
2023-05-04T07:48:26.152Z,9.70
2023-05-04T07:50:53.738Z,11.53
2023-05-04T07:53:25.351Z,10.13
2023-05-04T07:55:54.229Z,10.77
2023-05-04T07:58:20.928Z,10.90
2023-05-04T08:00:47.519Z,10.67
2023-05-04T08:03:14.291Z,9.70
2023-05-04T08:05:41.165Z,10.00
2023-05-04T08:08:08.910Z,9.73
2023-05-04T08:10:38.663Z,9.63
2023-05-04T08:13:06.116Z,9.10
2023-05-04T08:15:33.584Z,9.87
2023-05-04T08:18:00.746Z,9.07
2023-05-04T08:20:28.048Z,8.80
2023-05-04T08:22:55.047Z,9.10
2023-05-04T08:25:22.832Z,9.57
2023-05-04T08:27:50.085Z,9.17
2023-05-04T08:30:17.309Z,8.67
2023-05-04T08:32:44.466Z,8.07
2023-05-04T08:35:11.562Z,8.03
2023-05-04T08:37:38.647Z,8.80
2023-05-04T08:40:05.915Z,8.00
2023-05-04T08:42:34.402Z,8.53
2023-05-04T08:45:01.747Z,9.10
2023-05-04T08:47:29.712Z,8.13
2023-05-04T08:49:57.150Z,8.40
2023-05-04T08:52:24.719Z,7.13
2023-05-04T08:54:54.329Z,8.13
2023-05-04T08:57:23.466Z,8.13
2023-05-04T08:59:52.545Z,7.37
2023-05-04T09:02:23.684Z,7.90
2023-05-04T09:04:54.052Z,7.63
2023-05-04T09:07:21.774Z,7.13
2023-05-04T09:09:50.815Z,7.37
2023-05-04T09:12:19.090Z,7.10
2023-05-04T09:14:49.176Z,6.40
2023-05-04T09:17:17.708Z,6.17
2023-05-04T09:19:45.329Z,5.87
2023-05-04T09:22:17.184Z,5.33
2023-05-04T09:24:45.529Z,4.70
2023-05-04T09:27:13.308Z,4.63
2023-05-04T09:29:42.267Z,5.03
2023-05-04T09:32:14.234Z,4.75
2023-05-04T09:34:50.776Z,5.00
2023-05-04T09:37:20.725Z,4.57
2023-05-04T09:39:55.414Z,4.50
2023-05-04T09:42:23.365Z,4.00
2023-05-04T09:45:00.302Z,3.97
2023-05-04T09:47:36.220Z,5.20
2023-05-04T09:50:19.879Z,4.03
2023-05-04T09:52:48.041Z,4.53
2023-05-04T09:55:15.894Z,4.50
2023-05-04T09:57:44.011Z,4.80
2023-05-04T10:00:12.850Z,4.20
2023-05-04T10:02:40.736Z,4.73
2023-05-04T10:05:09.523Z,4.43
2023-05-04T10:07:37.020Z,4.50
2023-05-04T10:10:04.137Z,4.40
2023-05-04T10:12:31.398Z,4.40
2023-05-04T10:14:58.556Z,4.90
2023-05-04T10:17:44.413Z,4.70
2023-05-04T10:20:30.345Z,4.70
2023-05-04T10:23:03.452Z,4.40
2023-05-04T10:25:33.448Z,4.37
2023-05-04T10:28:23.162Z,3.97
2023-05-04T10:30:56.763Z,4.13
2023-05-04T10:33:23.916Z,3.93
2023-05-04T10:35:54.751Z,4.30
2023-05-04T10:38:32.864Z,4.33
2023-05-04T10:41:00.177Z,4.30
2023-05-04T10:43:32.485Z,4.20
2023-05-04T10:46:01.324Z,5.20
2023-05-04T10:48:35.695Z,4.40
2023-05-04T10:51:02.769Z,5.03
2023-05-04T10:53:33.263Z,4.47
2023-05-04T10:56:00.408Z,4.27
2023-05-04T10:58:30.669Z,4.50
2023-05-04T11:00:57.792Z,4.73
2023-05-04T11:03:25.572Z,4.17
2023-05-04T11:05:54.714Z,4.30
2023-05-04T11:08:26.344Z,4.53
2023-05-04T11:11:03.745Z,3.87
2023-05-04T11:13:31.915Z,4.47
2023-05-04T11:15:59.512Z,4.67
2023-05-04T11:18:31.039Z,4.50
2023-05-04T11:20:58.924Z,4.32
2023-05-04T11:23:26.087Z,4.10
2023-05-04T11:25:53.362Z,4.27
2023-05-04T11:28:20.427Z,4.40
2023-05-04T11:30:47.747Z,4.00
2023-05-04T11:33:16.185Z,4.70
2023-05-04T11:35:44.468Z,4.27
2023-05-04T11:38:13.182Z,4.37
2023-05-04T11:40:41.229Z,4.07
2023-05-04T11:43:10.643Z,5.20
2023-05-04T11:45:38.999Z,4.47
2023-05-04T11:48:06.317Z,4.00
2023-05-04T11:50:33.671Z,4.57
2023-05-04T11:53:11.350Z,4.33
2023-05-04T11:55:38.741Z,3.87
2023-05-04T11:58:09.885Z,4.70
2023-05-04T12:00:41.806Z,3.70
2023-05-04T12:03:32.643Z,4.30
2023-05-04T12:06:10.793Z,4.23
2023-05-04T12:08:47.830Z,3.97
2023-05-04T12:11:25.674Z,3.90
2023-05-04T12:14:17.055Z,4.27
2023-05-04T12:16:53.983Z,4.30
2023-05-04T12:19:21.009Z,4.77
2023-05-04T12:21:54.779Z,4.30
2023-05-04T12:24:22.459Z,4.10
2023-05-04T12:26:49.764Z,3.43
2023-05-04T12:29:16.893Z,4.03
2023-05-04T12:31:44.005Z,4.00
2023-05-04T12:34:11.060Z,4.60
2023-05-04T12:36:38.151Z,4.47
2023-05-04T12:39:05.192Z,4.07
2023-05-04T12:41:32.514Z,4.50
2023-05-04T12:43:59.600Z,4.83
2023-05-04T12:46:26.664Z,4.33
2023-05-04T12:48:53.701Z,4.70
2023-05-04T12:51:20.851Z,4.20
2023-05-04T12:53:47.868Z,4.50
2023-05-04T12:56:14.884Z,4.60
2023-05-04T12:58:42.120Z,4.20
2023-05-04T13:01:09.236Z,3.67
2023-05-04T13:03:36.476Z,4.80
2023-05-04T13:06:04.401Z,5.30
2023-05-04T13:08:32.558Z,4.93
2023-05-04T13:10:59.612Z,4.20
2023-05-04T13:13:28.940Z,4.00
2023-05-04T13:15:56.386Z,4.07
2023-05-04T13:18:27.026Z,4.15
2023-05-04T13:20:54.854Z,5.60
2023-05-04T13:23:22.072Z,4.78
2023-05-04T13:25:52.154Z,4.28
2023-05-04T13:28:19.424Z,4.60
2023-05-04T13:30:46.536Z,4.78
2023-05-04T13:33:27.905Z,4.22
2023-05-04T13:35:57.640Z,4.53
2023-05-04T13:38:24.831Z,4.67
2023-05-04T13:40:52.003Z,4.20
2023-05-04T13:43:19.165Z,5.47
2023-05-04T13:45:46.203Z,4.40
2023-05-04T13:48:13.229Z,4.45
2023-05-04T13:50:40.364Z,5.03
2023-05-04T13:53:07.535Z,5.07
2023-05-04T13:55:34.590Z,5.13
2023-05-04T13:58:01.620Z,5.45
2023-05-04T14:00:28.629Z,5.25
2023-05-04T14:02:55.749Z,5.00
2023-05-04T14:05:23.006Z,4.75
2023-05-04T14:07:51.617Z,5.28
2023-05-04T14:10:18.720Z,4.88
2023-05-04T14:12:45.984Z,4.45
2023-05-04T14:15:13.300Z,4.75
2023-05-04T14:17:40.397Z,5.13
2023-05-04T14:20:08.828Z,5.65
2023-05-04T14:22:38.043Z,4.95
2023-05-04T14:25:06.016Z,5.40
2023-05-04T14:27:36.130Z,4.50
2023-05-04T14:30:03.963Z,5.20
2023-05-04T14:32:31.148Z,4.55
2023-05-04T14:35:08.198Z,4.38
2023-05-04T14:37:37.190Z,5.05
2023-05-04T14:40:06.435Z,4.93
2023-05-04T14:42:33.956Z,5.55
2023-05-04T14:45:01.080Z,4.97
2023-05-04T14:47:29.097Z,4.75
2023-05-04T14:49:57.281Z,4.50
2023-05-04T14:52:24.730Z,5.05
2023-05-04T14:54:51.990Z,4.50
2023-05-04T14:57:19.166Z,5.25
2023-05-04T14:59:46.180Z,5.10
2023-05-04T15:02:13.416Z,4.57
2023-05-04T15:04:40.592Z,4.70
2023-05-04T15:07:09.620Z,4.80
2023-05-04T15:09:38.077Z,4.95
2023-05-04T15:12:05.336Z,4.50
2023-05-04T15:14:32.766Z,4.60
2023-05-04T15:16:59.878Z,4.60
2023-05-04T15:19:26.881Z,4.57
2023-05-04T15:21:53.907Z,4.55
2023-05-04T15:24:20.919Z,4.43
2023-05-04T15:26:47.939Z,4.50
2023-05-04T15:29:14.946Z,4.90
2023-05-04T15:31:42.052Z,4.50
2023-05-04T15:34:09.136Z,4.13
2023-05-04T15:36:36.228Z,4.90
2023-05-04T15:39:05.433Z,4.47
2023-05-04T15:41:32.492Z,4.73
2023-05-04T15:43:59.770Z,4.20
2023-05-04T15:48:53.880Z,4.95
2023-05-04T15:51:20.978Z,5.22
2023-05-04T15:53:48.084Z,4.63
2023-05-04T15:56:15.887Z,4.57
2023-05-04T15:58:44.040Z,4.05
2023-05-04T16:01:14.356Z,4.70
2023-05-04T16:03:42.317Z,4.20
2023-05-04T16:06:09.873Z,4.55
2023-05-04T16:08:37.146Z,4.28
2023-05-04T16:11:04.632Z,4.10
2023-05-04T16:13:31.787Z,3.95
2023-05-04T16:15:58.822Z,4.63
2023-05-04T16:18:26.096Z,4.47
2023-05-04T16:20:54.579Z,4.00
2023-05-04T16:23:21.235Z,4.55
2023-05-04T16:25:47.891Z,4.28
2023-05-04T16:28:14.466Z,4.22
2023-05-04T16:30:42.848Z,4.32
2023-05-04T16:33:09.632Z,4.60
2023-05-04T16:35:36.667Z,4.53
2023-05-04T16:38:03.917Z,4.35
2023-05-04T16:40:32.604Z,4.25
2023-05-04T16:42:59.465Z,4.30
2023-05-04T16:45:31.125Z,4.80
2023-05-04T16:47:58.657Z,4.82
2023-05-04T16:50:25.677Z,4.10
2023-05-04T16:52:52.297Z,4.80
2023-05-04T16:55:19.670Z,5.03
2023-05-04T16:57:46.800Z,4.57
2023-05-04T17:00:14.179Z,4.37
2023-05-04T17:02:41.094Z,4.27
2023-05-04T17:05:10.185Z,4.50
2023-05-04T17:07:39.530Z,4.30
2023-05-04T17:10:07.823Z,4.17
2023-05-04T17:12:34.755Z,4.68
2023-05-04T17:15:01.896Z,4.82
2023-05-04T17:17:28.456Z,4.53
2023-05-04T17:19:55.052Z,5.28
2023-05-04T17:22:21.706Z,4.73
2023-05-04T17:24:48.395Z,4.87
2023-05-04T17:27:15.010Z,5.50
2023-05-04T17:29:41.590Z,4.77
2023-05-04T17:32:08.340Z,3.97
2023-05-04T17:34:35.907Z,4.87
2023-05-04T17:37:02.591Z,4.68
2023-05-04T17:39:31.413Z,4.43
2023-05-04T17:41:58.768Z,4.03
2023-05-04T17:44:26.041Z,4.27
2023-05-04T17:46:52.637Z,4.20
2023-05-04T17:49:19.248Z,4.50
2023-05-04T17:51:48.927Z,3.80
2023-05-04T17:54:18.957Z,4.63
2023-05-04T17:56:45.623Z,4.50
2023-05-04T17:59:12.264Z,4.27
2023-05-04T18:01:38.993Z,4.50
2023-05-04T18:04:05.813Z,4.00
2023-05-04T18:06:32.723Z,4.80
2023-05-04T18:09:00.320Z,4.83
2023-05-04T18:11:27.044Z,4.90
2023-05-04T18:13:53.721Z,4.33
2023-05-04T18:16:20.477Z,4.33
2023-05-04T18:18:47.136Z,4.67
2023-05-04T18:21:13.809Z,4.57
2023-05-04T18:23:40.457Z,4.23
2023-05-04T18:26:07.177Z,3.87
2023-05-04T18:28:33.774Z,4.00
2023-05-04T18:31:00.482Z,4.20
2023-05-04T18:33:27.313Z,4.13
2023-05-04T18:35:53.876Z,4.07
2023-05-04T18:38:20.505Z,4.20
2023-05-04T18:40:47.179Z,3.77
2023-05-04T18:43:13.776Z,3.63
2023-05-04T18:45:40.375Z,3.80
2023-05-04T18:48:07.017Z,3.40
2023-05-04T18:50:33.612Z,4.00
2023-05-04T18:53:01.306Z,4.03
2023-05-04T18:55:27.911Z,3.83
2023-05-04T18:57:54.569Z,3.90
2023-05-04T19:00:21.358Z,3.43
2023-05-04T19:02:48.008Z,3.73
2023-05-04T19:05:15.039Z,4.20
2023-05-04T19:07:41.682Z,4.00
2023-05-04T19:10:09.107Z,4.40
2023-05-04T19:12:36.319Z,4.07
2023-05-04T19:15:03.172Z,4.13
2023-05-04T19:17:29.764Z,3.90
2023-05-04T19:19:57.071Z,3.87
2023-05-04T19:22:24.085Z,4.33
2023-05-04T19:24:51.517Z,4.38
2023-05-04T19:27:18.159Z,4.53
2023-05-04T19:29:44.739Z,4.20
2023-05-04T19:32:22.962Z,4.43
2023-05-04T19:34:51.512Z,4.07
2023-05-04T19:37:18.163Z,4.50
2023-05-04T19:39:44.771Z,4.40
2023-05-04T19:42:11.607Z,4.20
2023-05-04T19:44:38.181Z,4.37
2023-05-04T19:47:04.780Z,4.00
2023-05-04T19:49:31.406Z,4.43
2023-05-04T19:51:58.014Z,4.10
2023-05-04T19:54:24.626Z,4.20
2023-05-04T19:56:51.195Z,4.13
2023-05-04T19:59:17.763Z,4.53
2023-05-04T20:01:44.525Z,4.27
2023-05-04T20:04:12.261Z,4.60
2023-05-04T20:06:38.888Z,4.40
2023-05-04T20:09:05.550Z,4.87
2023-05-04T20:11:32.149Z,4.60
2023-05-04T20:13:58.819Z,5.03
2023-05-04T20:16:25.658Z,5.43
2023-05-04T20:18:52.380Z,5.37
2023-05-04T20:21:19.459Z,5.47
2023-05-04T20:23:46.334Z,4.87
2023-05-04T20:26:12.938Z,4.40
2023-05-04T20:28:39.549Z,4.90
2023-05-04T20:31:07.490Z,5.27
2023-05-04T20:33:34.156Z,4.97
2023-05-04T20:36:00.756Z,5.77
2023-05-04T20:38:27.338Z,4.80
2023-05-04T20:40:54.824Z,4.70
2023-05-04T20:43:21.373Z,4.80
2023-05-04T20:45:48.106Z,5.00
2023-05-04T20:48:14.762Z,5.30
2023-05-04T20:50:41.571Z,5.00
2023-05-04T20:53:08.538Z,5.20
2023-05-04T20:55:36.011Z,5.00
2023-05-04T20:58:02.608Z,5.17
2023-05-04T21:00:29.997Z,5.13
2023-05-04T21:02:57.301Z,5.43
2023-05-04T21:05:23.983Z,5.57
2023-05-04T21:07:52.142Z,5.20
2023-05-04T21:10:21.621Z,4.73
2023-05-04T21:12:48.269Z,5.50
2023-05-04T21:15:15.059Z,5.28
2023-05-04T21:17:41.722Z,5.37
2023-05-04T21:20:09.382Z,4.90
2023-05-04T21:22:36.287Z,6.03
2023-05-04T21:25:03.971Z,5.03
2023-05-04T21:27:30.583Z,5.47
2023-05-04T21:29:57.388Z,4.67
2023-05-04T21:32:24.083Z,5.33
2023-05-04T21:34:53.565Z,4.93
2023-05-04T21:37:20.232Z,5.57
2023-05-04T21:39:47.313Z,5.53
2023-05-04T21:42:13.888Z,4.80
2023-05-04T21:44:40.441Z,4.83
2023-05-04T21:47:07.208Z,5.53
2023-05-04T21:49:33.928Z,5.17
2023-05-04T21:52:00.510Z,5.60
2023-05-04T21:54:27.081Z,5.35
2023-05-04T21:56:54.087Z,4.83
2023-05-04T21:59:20.690Z,5.23
2023-05-04T22:01:47.291Z,4.77
2023-05-04T22:04:13.935Z,5.33
2023-05-04T22:06:40.586Z,4.77
2023-05-04T22:09:07.181Z,5.27
2023-05-04T22:11:33.743Z,4.53
2023-05-04T22:14:00.433Z,5.63
2023-05-04T22:16:27.106Z,4.77
2023-05-04T22:18:53.842Z,5.77
2023-05-04T22:21:20.670Z,5.07
2023-05-04T22:23:47.402Z,5.03
2023-05-04T22:26:14.053Z,4.73
2023-05-04T22:28:40.696Z,5.90
2023-05-04T22:31:07.278Z,5.77
2023-05-04T22:33:33.921Z,5.10
2023-05-04T22:36:00.564Z,5.43
2023-05-04T22:38:27.203Z,5.57
2023-05-04T22:40:53.811Z,4.73
2023-05-04T22:43:20.401Z,5.20
2023-05-04T22:45:47.086Z,5.60
2023-05-04T22:48:16.525Z,5.17
2023-05-04T22:50:43.148Z,5.70
2023-05-04T22:53:10.310Z,5.50
2023-05-04T22:55:37.243Z,5.30
2023-05-04T22:58:03.861Z,5.83
2023-05-04T23:00:30.482Z,5.17
2023-05-04T23:02:57.146Z,5.70
2023-05-04T23:05:23.841Z,5.23
2023-05-04T23:07:52.321Z,5.47
2023-05-04T23:10:19.457Z,5.40
2023-05-04T23:12:46.072Z,5.57
2023-05-04T23:15:14.074Z,5.30
2023-05-04T23:17:40.982Z,4.90
2023-05-04T23:20:11.892Z,5.07
2023-05-04T23:22:38.499Z,5.03
2023-05-04T23:25:05.580Z,5.20
2023-05-04T23:27:32.190Z,5.47
2023-05-04T23:29:58.777Z,5.00
2023-05-04T23:32:25.573Z,4.73
2023-05-04T23:34:52.288Z,4.80
2023-05-04T23:37:18.874Z,4.53
2023-05-04T23:39:47.028Z,4.67
2023-05-04T23:42:13.805Z,5.20
2023-05-04T23:44:40.576Z,5.07
2023-05-04T23:47:07.249Z,4.90
2023-05-04T23:49:33.834Z,5.10
2023-05-04T23:52:00.787Z,4.70
2023-05-04T23:54:27.353Z,4.90
2023-05-04T23:56:53.931Z,4.80
2023-05-04T23:59:20.668Z,5.10
